Time,TemperatureF,DewpointF,PressureIn,WindDirection,WindDirectionDegrees,WindSpeedMPH,WindSpeedGustMPH,Humidity,HourlyPrecipIn,Conditions,Clouds,dailyrainin,SolarRadiationWatts/m^2,SoftwareType,DateUTC
2013-02-07 00:12:00,21.0,17.0,-100.00,SSE,154,2.0,5.0,85,0.00,,,0.00,1.000000,,2013-02-07 05:12:00,
2013-02-07 00:21:00,21.0,17.0,-100.00,SSE,154,2.0,5.0,85,0.00,,,0.00,1.000000,,2013-02-07 05:21:00,
2013-02-07 00:32:00,21.0,17.0,-100.00,SSE,154,2.0,5.0,85,0.00,,,0.00,1.000000,,2013-02-07 05:32:00,
2013-02-07 00:42:00,21.0,17.0,-100.00,SSE,154,2.0,5.0,85,0.00,,,0.00,1.000000,,2013-02-07 05:42:00,
2013-02-07 01:11:00,21.0,19.0,-100.00,SSE,167,1.0,5.0,90,0.00,,,0.00,1.000000,,2013-02-07 06:11:00,
2013-02-07 01:22:00,21.0,19.0,-100.00,SSE,167,1.0,5.0,90,0.00,,,0.00,1.000000,,2013-02-07 06:22:00,
2013-02-07 01:32:00,21.0,19.0,-100.00,SSE,167,1.0,5.0,90,0.00,,,0.00,1.000000,,2013-02-07 06:32:00,
2013-02-07 01:43:00,21.0,19.0,-100.00,SSE,167,1.0,5.0,90,0.00,,,0.00,1.000000,,2013-02-07 06:43:00,
2013-02-07 02:12:00,22.0,20.0,-100.00,SSE,159,4.0,7.0,93,0.00,,,0.00,1.000000,,2013-02-07 07:12:00,
2013-02-07 02:22:00,22.0,20.0,-100.00,SSE,159,4.0,7.0,93,0.00,,,0.00,1.000000,,2013-02-07 07:22:00,
2013-02-07 02:32:00,22.0,20.0,-100.00,SSE,159,4.0,7.0,93,0.00,,,0.00,1.000000,,2013-02-07 07:32:00,
2013-02-07 02:42:00,22.0,20.0,-100.00,SSE,159,4.0,7.0,93,0.00,,,0.00,1.000000,,2013-02-07 07:42:00,
2013-02-07 03:11:00,22.0,21.0,-100.00,SSE,148,4.0,7.0,94,0.00,,,0.00,1.000000,,2013-02-07 08:11:00,
2013-02-07 03:22:00,22.0,21.0,-100.00,SSE,148,4.0,7.0,94,0.00,,,0.00,1.000000,,2013-02-07 08:22:00,
2013-02-07 03:32:00,22.0,21.0,-100.00,SSE,148,4.0,7.0,94,0.00,,,0.00,1.000000,,2013-02-07 08:32:00,
2013-02-07 03:42:00,22.0,21.0,-100.00,SSE,148,4.0,7.0,94,0.00,,,0.00,1.000000,,2013-02-07 08:42:00,
2013-02-07 04:11:00,23.0,22.0,-100.00,SSE,153,5.0,7.0,94,0.00,,,0.00,1.000000,,2013-02-07 09:11:00,
2013-02-07 04:22:00,23.0,22.0,-100.00,SSE,153,5.0,7.0,94,0.00,,,0.00,1.000000,,2013-02-07 09:22:00,
2013-02-07 04:32:00,23.0,22.0,-100.00,SSE,153,5.0,7.0,94,0.00,,,0.00,1.000000,,2013-02-07 09:32:00,
2013-02-07 04:42:00,23.0,22.0,-100.00,SSE,153,5.0,7.0,94,0.00,,,0.00,1.000000,,2013-02-07 09:42:00,
2013-02-07 05:11:00,23.0,22.0,-100.00,SSE,150,4.0,7.0,95,0.00,,,0.00,0.000000,,2013-02-07 10:11:00,
2013-02-07 05:22:00,23.0,22.0,-100.00,SSE,150,4.0,7.0,95,0.00,,,0.00,0.000000,,2013-02-07 10:22:00,
2013-02-07 05:32:00,23.0,22.0,-100.00,SSE,150,4.0,7.0,95,0.00,,,0.00,0.000000,,2013-02-07 10:32:00,
2013-02-07 05:42:00,23.0,22.0,-100.00,SSE,150,4.0,7.0,95,0.00,,,0.00,0.000000,,2013-02-07 10:42:00,
2013-02-07 06:11:00,23.0,22.0,-100.00,SSE,161,5.0,10.0,95,0.00,,,0.00,1.000000,,2013-02-07 11:11:00,
2013-02-07 06:23:00,23.0,22.0,-100.00,SSE,161,5.0,10.0,95,0.00,,,0.00,1.000000,,2013-02-07 11:23:00,
2013-02-07 06:32:00,23.0,22.0,-100.00,SSE,161,5.0,10.0,95,0.00,,,0.00,1.000000,,2013-02-07 11:32:00,
2013-02-07 06:44:00,23.0,22.0,-100.00,SSE,161,5.0,10.0,95,0.00,,,0.00,1.000000,,2013-02-07 11:44:00,
2013-02-07 07:12:00,23.0,22.0,-100.00,SSE,154,5.0,8.0,96,0.00,,,0.00,0.000000,,2013-02-07 12:12:00,
2013-02-07 07:22:00,23.0,22.0,-100.00,SSE,154,5.0,8.0,96,0.00,,,0.00,0.000000,,2013-02-07 12:22:00,
2013-02-07 07:33:00,23.0,22.0,-100.00,SSE,154,5.0,8.0,96,0.00,,,0.00,0.000000,,2013-02-07 12:33:00,
2013-02-07 07:42:00,23.0,22.0,-100.00,SSE,154,5.0,8.0,96,0.00,,,0.00,0.000000,,2013-02-07 12:42:00,
2013-02-07 08:12:00,24.0,23.0,-100.00,SSE,157,5.0,10.0,96,0.00,,,0.00,1.000000,,2013-02-07 13:12:00,
2013-02-07 08:22:00,24.0,23.0,-100.00,SSE,157,5.0,10.0,96,0.00,,,0.00,1.000000,,2013-02-07 13:22:00,
2013-02-07 08:32:00,24.0,23.0,-100.00,SSE,157,5.0,10.0,96,0.00,,,0.00,1.000000,,2013-02-07 13:32:00,
2013-02-07 08:42:00,24.0,23.0,-100.00,SSE,157,5.0,10.0,96,0.00,,,0.00,1.000000,,2013-02-07 13:42:00,
2013-02-07 09:12:00,24.0,23.0,-100.00,SSE,165,4.0,9.0,96,0.00,,,0.00,4.000000,,2013-02-07 14:12:00,
2013-02-07 09:22:00,24.0,23.0,-100.00,SSE,165,4.0,9.0,96,0.00,,,0.00,4.000000,,2013-02-07 14:22:00,
2013-02-07 09:32:00,24.0,23.0,-100.00,SSE,165,4.0,9.0,96,0.00,,,0.00,4.000000,,2013-02-07 14:32:00,
2013-02-07 09:42:00,24.0,23.0,-100.00,SSE,165,4.0,9.0,96,0.00,,,0.00,4.000000,,2013-02-07 14:42:00,
2013-02-07 10:11:00,24.0,23.0,-100.00,SE,144,5.0,8.0,94,0.00,,,0.00,11.000000,,2013-02-07 15:11:00,
2013-02-07 10:22:00,24.0,23.0,-100.00,SE,144,5.0,8.0,94,0.00,,,0.00,11.000000,,2013-02-07 15:22:00,
2013-02-07 10:32:00,24.0,23.0,-100.00,SE,144,5.0,8.0,94,0.00,,,0.00,11.000000,,2013-02-07 15:32:00,
2013-02-07 10:42:00,24.0,23.0,-100.00,SE,144,5.0,8.0,94,0.00,,,0.00,11.000000,,2013-02-07 15:42:00,
2013-02-07 11:11:00,26.0,24.0,-100.00,SSE,150,5.0,8.0,92,0.00,,,0.00,32.000000,,2013-02-07 16:11:00,
2013-02-07 11:22:00,26.0,24.0,-100.00,SSE,150,5.0,8.0,92,0.00,,,0.00,32.000000,,2013-02-07 16:22:00,
2013-02-07 11:32:00,26.0,24.0,-100.00,SSE,150,5.0,8.0,92,0.00,,,0.00,32.000000,,2013-02-07 16:32:00,
2013-02-07 11:42:00,26.0,24.0,-100.00,SSE,150,5.0,8.0,92,0.00,,,0.00,32.000000,,2013-02-07 16:42:00,
2013-02-07 12:11:00,27.0,24.0,-100.00,South,173,6.0,10.0,89,0.00,,,0.00,51.000000,,2013-02-07 17:11:00,
2013-02-07 12:22:00,27.0,24.0,-100.00,South,173,6.0,10.0,89,0.00,,,0.00,51.000000,,2013-02-07 17:22:00,
2013-02-07 12:32:00,27.0,24.0,-100.00,South,173,6.0,10.0,89,0.00,,,0.00,51.000000,,2013-02-07 17:32:00,
2013-02-07 12:43:00,27.0,24.0,-100.00,South,173,6.0,10.0,89,0.00,,,0.00,51.000000,,2013-02-07 17:43:00,
2013-02-07 13:12:00,27.0,25.0,-100.00,SSE,154,5.0,9.0,91,0.00,,,0.00,39.000000,,2013-02-07 18:12:00,
2013-02-07 13:23:00,27.0,25.0,-100.00,SSE,154,5.0,9.0,91,0.00,,,0.00,39.000000,,2013-02-07 18:23:00,
2013-02-07 13:32:00,27.0,25.0,-100.00,SSE,154,5.0,9.0,91,0.00,,,0.00,39.000000,,2013-02-07 18:32:00,
2013-02-07 13:42:00,27.0,25.0,-100.00,SSE,154,5.0,9.0,91,0.00,,,0.00,39.000000,,2013-02-07 18:42:00,
2013-02-07 14:11:00,28.0,26.0,-100.00,SE,143,5.0,8.0,91,0.00,,,0.00,33.000000,,2013-02-07 19:11:00,
2013-02-07 14:22:00,28.0,26.0,-100.00,SE,143,5.0,8.0,91,0.00,,,0.00,33.000000,,2013-02-07 19:22:00,
2013-02-07 14:32:00,28.0,26.0,-100.00,SE,143,5.0,8.0,91,0.00,,,0.00,33.000000,,2013-02-07 19:32:00,
2013-02-07 14:42:00,28.0,26.0,-100.00,SE,143,5.0,8.0,91,0.00,,,0.00,33.000000,,2013-02-07 19:42:00,
2013-02-07 15:11:00,28.0,26.0,-100.00,ESE,107,4.0,9.0,91,0.00,,,0.00,31.000000,,2013-02-07 20:11:00,
2013-02-07 15:22:00,28.0,26.0,-100.00,ESE,107,4.0,9.0,91,0.00,,,0.00,31.000000,,2013-02-07 20:22:00,
2013-02-07 15:32:00,28.0,26.0,-100.00,ESE,107,4.0,9.0,91,0.00,,,0.00,31.000000,,2013-02-07 20:32:00,
2013-02-07 15:42:00,28.0,26.0,-100.00,ESE,107,4.0,9.0,91,0.00,,,0.00,31.000000,,2013-02-07 20:42:00,
2013-02-07 16:11:00,28.0,26.0,-100.00,ESE,120,4.0,9.0,93,0.00,,,0.00,38.000000,,2013-02-07 21:11:00,
2013-02-07 16:22:00,28.0,26.0,-100.00,ESE,120,4.0,9.0,93,0.00,,,0.00,38.000000,,2013-02-07 21:22:00,
2013-02-07 16:32:00,28.0,26.0,-100.00,ESE,120,4.0,9.0,93,0.00,,,0.00,38.000000,,2013-02-07 21:32:00,
2013-02-07 16:42:00,28.0,26.0,-100.00,ESE,120,4.0,9.0,93,0.00,,,0.00,38.000000,,2013-02-07 21:42:00,
2013-02-07 17:11:00,29.0,28.0,-100.00,ESE,119,5.0,9.0,95,0.00,,,0.00,23.000000,,2013-02-07 22:11:00,
2013-02-07 17:22:00,29.0,28.0,-100.00,ESE,119,5.0,9.0,95,0.00,,,0.00,23.000000,,2013-02-07 22:22:00,
2013-02-07 17:32:00,29.0,28.0,-100.00,ESE,119,5.0,9.0,95,0.00,,,0.00,23.000000,,2013-02-07 22:32:00,
2013-02-07 17:42:00,29.0,28.0,-100.00,ESE,119,5.0,9.0,95,0.00,,,0.00,23.000000,,2013-02-07 22:42:00,
2013-02-07 18:11:00,28.0,27.0,-100.00,ESE,120,5.0,10.0,96,0.00,,,0.00,7.000000,,2013-02-07 23:11:00,
2013-02-07 18:22:00,28.0,27.0,-100.00,ESE,120,5.0,10.0,96,0.00,,,0.00,7.000000,,2013-02-07 23:22:00,
2013-02-07 18:32:00,28.0,27.0,-100.00,ESE,120,5.0,10.0,96,0.00,,,0.00,7.000000,,2013-02-07 23:32:00,
2013-02-07 18:42:00,28.0,27.0,-100.00,ESE,120,5.0,10.0,96,0.00,,,0.00,7.000000,,2013-02-07 23:42:00,
2013-02-07 19:11:00,28.0,27.0,-100.00,ESE,109,5.0,12.0,97,0.00,,,0.00,1.000000,,2013-02-08 00:11:00,
2013-02-07 19:22:00,28.0,27.0,-100.00,ESE,109,5.0,12.0,97,0.00,,,0.00,1.000000,,2013-02-08 00:22:00,
2013-02-07 19:32:00,28.0,27.0,-100.00,ESE,109,5.0,12.0,97,0.00,,,0.00,1.000000,,2013-02-08 00:32:00,
2013-02-07 19:42:00,28.0,27.0,-100.00,ESE,109,5.0,12.0,97,0.00,,,0.00,1.000000,,2013-02-08 00:42:00,
2013-02-07 20:42:00,28.0,27.0,-100.00,ESE,110,5.0,10.0,97,0.00,,,0.00,0.000000,,2013-02-08 01:42:00,
2013-02-07 21:11:00,28.0,28.0,-100.00,ESE,107,5.0,14.0,98,0.00,,,0.00,0.000000,,2013-02-08 02:11:00,
2013-02-07 21:22:00,28.0,28.0,-100.00,ESE,107,5.0,14.0,98,0.00,,,0.00,0.000000,,2013-02-08 02:22:00,
2013-02-07 21:32:00,28.0,28.0,-100.00,ESE,107,5.0,14.0,98,0.00,,,0.00,0.000000,,2013-02-08 02:32:00,
2013-02-07 21:42:00,28.0,28.0,-100.00,ESE,107,5.0,14.0,98,0.00,,,0.00,0.000000,,2013-02-08 02:42:00,
2013-02-07 22:12:00,28.0,28.0,-100.00,ESE,102,6.0,12.0,98,0.00,,,0.00,1.000000,,2013-02-08 03:12:00,
2013-02-07 22:22:00,28.0,28.0,-100.00,ESE,102,6.0,12.0,98,0.00,,,0.00,1.000000,,2013-02-08 03:22:00,
2013-02-07 22:32:00,28.0,28.0,-100.00,ESE,102,6.0,12.0,98,0.00,,,0.00,1.000000,,2013-02-08 03:32:00,
2013-02-07 22:42:00,28.0,28.0,-100.00,ESE,102,6.0,12.0,98,0.00,,,0.00,1.000000,,2013-02-08 03:42:00,
2013-02-07 23:11:00,28.0,28.0,-100.00,East,80,7.0,12.0,98,0.00,,,0.00,1.000000,,2013-02-08 04:11:00,
2013-02-07 23:21:00,28.0,28.0,-100.00,East,80,7.0,12.0,98,0.00,,,0.00,1.000000,,2013-02-08 04:21:00,
2013-02-07 23:32:00,28.0,28.0,-100.00,East,80,7.0,12.0,98,0.00,,,0.00,1.000000,,2013-02-08 04:32:00,
2013-02-07 23:42:00,28.0,28.0,-100.00,East,80,7.0,12.0,98,0.00,,,0.00,1.000000,,2013-02-08 04:42:00,